Daisinmaru No.11 — JK5352 — position and weather

sailwx.info

Track history (hours):
 
Tides and Currents Weather Stations Pressure Air Temp Water Temp Dewpoint Dewpoint Depression Visibility Wind Speed Wind Dir Waves Ship Positions

Daisinmaru No.11

Last reported at 2015-Jun-29 11:19 UTC. Time now 2015-Jul-01 23:09 UTC.
Position N 35°28' E 139°60'.

Length 52 m; draft 5.2 m.

Type: Cargo ship. MMSI: 431000667.

Date/timePositionNaut miles runAvg speedWind from/ knotsBaromVisibWave heightAir tempDewpointWater temp
2015-Jun-29 11:19N 35°28' E 139°60'0 0.1
2015-Jun-29 10:33N 35°27' E 139°60'0 0.0
2015-Jun-29 09:33N 35°27' E 139°60'0 0.0
2015-Jun-29 08:33N 35°27' E 139°60'2 1.6
2015-Jun-29 07:33N 35°29' E 139°59'7 7.2
2015-Jun-29 06:33N 35°30' E 139°50'6 5.8
2015-Jun-29 05:33N 35°29' E 139°43'0 0.0
2015-Jun-29 04:33N 35°29' E 139°43'0 0.0
2015-Jun-29 03:33N 35°29' E 139°43'0 0.0
2015-Jun-29 02:33N 35°29' E 139°43'0 0.0
2015-Jun-29 01:33N 35°29' E 139°43'7 7.5
2015-Jun-29 00:33N 35°30' E 139°52'  
2015-Jun-25 22:33N 35°27' E 139°60'0 0.0
2015-Jun-25 05:19N 35°27' E 139°60'0 0.0
2015-Jun-25 04:33N 35°27' E 139°60'0 0.0
2015-Jun-25 03:33N 35°27' E 139°60'6 6.5
2015-Jun-25 02:34N 35°30' E 139°52'8 8.0
2015-Jun-25 01:34N 35°29' E 139°43'0 0.1
2015-Jun-25 00:34N 35°29' E 139°43'0 0.0
2015-Jun-24 23:33N 35°29' E 139°43'0 0.3
2015-Jun-24 22:34N 35°29' E 139°43'9 8.9
2015-Jun-24 21:34N 35°30' E 139°54'5 0.2
2015-Jun-23 23:33N 35°27' E 139°60'0 0.1
2015-Jun-23 22:33N 35°27' E 139°60'  
Track history (hours):
 
Tides and Currents Weather Stations Pressure Air Temp Water Temp Dewpoint Dewpoint Depression Visibility Wind Speed Wind Dir Waves Ship Positions

Daisinmaru No.11

Last reported at 2015-Jun-29 11:19 UTC. Time now 2015-Jul-01 23:09 UTC.
Position N 35°28' E 139°60'.

Length 52 m; draft 5.2 m.

Type: Cargo ship. MMSI: 431000667.

Date/timePositionNaut miles runAvg speedWind from/ knotsBaromVisibWave heightAir tempDewpointWater temp
2015-Jun-29 11:19N 35°28' E 139°60'0 0.1
2015-Jun-29 10:33N 35°27' E 139°60'0 0.0
2015-Jun-29 09:33N 35°27' E 139°60'0 0.0
2015-Jun-29 08:33N 35°27' E 139°60'2 1.6
2015-Jun-29 07:33N 35°29' E 139°59'7 7.2
2015-Jun-29 06:33N 35°30' E 139°50'6 5.8
2015-Jun-29 05:33N 35°29' E 139°43'0 0.0
2015-Jun-29 04:33N 35°29' E 139°43'0 0.0
2015-Jun-29 03:33N 35°29' E 139°43'0 0.0
2015-Jun-29 02:33N 35°29' E 139°43'0 0.0
2015-Jun-29 01:33N 35°29' E 139°43'7 7.5
2015-Jun-29 00:33N 35°30' E 139°52'  
2015-Jun-25 22:33N 35°27' E 139°60'0 0.0
2015-Jun-25 05:19N 35°27' E 139°60'0 0.0
2015-Jun-25 04:33N 35°27' E 139°60'0 0.0
2015-Jun-25 03:33N 35°27' E 139°60'6 6.5
2015-Jun-25 02:34N 35°30' E 139°52'8 8.0
2015-Jun-25 01:34N 35°29' E 139°43'0 0.1
2015-Jun-25 00:34N 35°29' E 139°43'0 0.0
2015-Jun-24 23:33N 35°29' E 139°43'0 0.3
2015-Jun-24 22:34N 35°29' E 139°43'9 8.9
2015-Jun-24 21:34N 35°30' E 139°54'5 0.2
2015-Jun-23 23:33N 35°27' E 139°60'0 0.1
2015-Jun-23 22:33N 35°27' E 139°60'  

Dump ship's entire track history